createdAt,value
2022-07-25T00:00:03.138Z,21.60
2022-07-25T00:01:03.293Z,21.62
2022-07-25T00:02:03.495Z,21.60
2022-07-25T00:03:03.545Z,21.58
2022-07-25T00:04:04.005Z,21.51
2022-07-25T00:05:03.734Z,21.47
2022-07-25T00:06:03.871Z,21.47
2022-07-25T00:07:04.000Z,21.45
2022-07-25T00:08:04.109Z,21.45
2022-07-25T00:09:04.237Z,21.45
2022-07-25T00:10:04.350Z,21.47
2022-07-25T00:11:04.490Z,21.44
2022-07-25T00:12:04.637Z,21.45
2022-07-25T00:13:04.694Z,21.44
2022-07-25T00:14:05.160Z,21.44
2022-07-25T00:15:04.908Z,21.45
2022-07-25T00:16:05.118Z,21.44
2022-07-25T00:17:05.111Z,21.43
2022-07-25T00:18:05.228Z,21.40
2022-07-25T00:19:05.360Z,21.37
2022-07-25T00:20:05.473Z,21.32
2022-07-25T00:21:05.606Z,21.30
2022-07-25T00:22:05.742Z,21.29
2022-07-25T00:23:05.836Z,21.26
2022-07-25T00:24:06.270Z,21.26
2022-07-25T00:25:06.059Z,21.26
2022-07-25T00:26:06.189Z,21.26
2022-07-25T00:27:06.298Z,21.28
2022-07-25T00:28:06.457Z,21.25
2022-07-25T00:29:06.578Z,21.22
2022-07-25T00:30:06.694Z,21.23
2022-07-25T00:31:06.891Z,21.20
2022-07-25T00:32:06.904Z,21.17
2022-07-25T00:33:07.016Z,21.15
2022-07-25T00:34:07.500Z,21.15
2022-07-25T00:35:07.217Z,21.15
2022-07-25T00:36:07.366Z,21.13
2022-07-25T00:37:07.483Z,21.11
2022-07-25T00:38:07.606Z,21.13
2022-07-25T00:39:07.726Z,21.11
2022-07-25T00:40:07.842Z,21.08
2022-07-25T00:41:07.986Z,21.04
2022-07-25T00:42:08.122Z,21.05
2022-07-25T00:43:08.241Z,21.05
2022-07-25T00:44:08.810Z,21.03
2022-07-25T00:45:08.478Z,21.01
2022-07-25T00:46:08.727Z,21.03
2022-07-25T00:47:08.746Z,21.00
2022-07-25T00:48:08.879Z,20.95
2022-07-25T00:49:09.077Z,20.95
2022-07-25T00:50:09.125Z,20.93
2022-07-25T00:51:09.258Z,20.92
2022-07-25T00:52:09.376Z,20.90
2022-07-25T00:53:09.495Z,20.89
2022-07-25T00:54:09.608Z,20.86
2022-07-25T00:55:09.743Z,20.83
2022-07-25T00:56:09.892Z,20.83
2022-07-25T00:57:10.024Z,20.80
2022-07-25T00:58:10.158Z,20.82
2022-07-25T00:59:10.280Z,20.83
2022-07-25T01:00:10.410Z,20.83
2022-07-25T01:01:10.608Z,20.83
2022-07-25T01:02:10.718Z,20.80
2022-07-25T01:03:10.853Z,20.80
2022-07-25T01:04:10.900Z,20.78
2022-07-25T01:05:11.069Z,20.75
2022-07-25T01:06:11.206Z,20.73
2022-07-25T01:07:11.320Z,20.70
2022-07-25T01:08:11.477Z,20.71
2022-07-25T01:09:11.613Z,20.74
2022-07-25T01:10:11.727Z,20.74
2022-07-25T01:11:11.861Z,20.71
2022-07-25T01:12:11.980Z,20.74
2022-07-25T01:13:12.120Z,20.74
2022-07-25T01:14:12.249Z,20.73
2022-07-25T01:15:12.377Z,20.70
2022-07-25T01:16:12.593Z,20.70
2022-07-25T01:17:12.593Z,20.71
2022-07-25T01:18:12.714Z,20.71
2022-07-25T01:19:12.834Z,20.71
2022-07-25T01:20:12.961Z,20.71
2022-07-25T01:21:13.098Z,20.71
2022-07-25T01:22:13.217Z,20.68
2022-07-25T01:23:13.347Z,20.68
2022-07-25T01:24:13.477Z,20.67
2022-07-25T01:25:13.598Z,20.67
2022-07-25T01:26:13.748Z,20.68
2022-07-25T01:27:17.342Z,20.70
2022-07-25T01:28:14.046Z,20.71
2022-07-25T01:29:14.215Z,20.70
2022-07-25T01:30:14.339Z,20.71
2022-07-25T01:31:14.522Z,20.67
2022-07-25T01:32:14.626Z,20.66
2022-07-25T01:33:14.749Z,20.64
2022-07-25T01:34:14.874Z,20.64
2022-07-25T01:35:15.010Z,20.63
2022-07-25T01:36:15.162Z,20.64
2022-07-25T01:37:15.293Z,20.66
2022-07-25T01:38:15.417Z,20.60
2022-07-25T01:39:15.542Z,20.66
2022-07-25T01:40:15.683Z,20.64
2022-07-25T01:41:22.509Z,20.63
2022-07-25T01:42:16.904Z,20.59
2022-07-25T01:43:16.034Z,20.59
2022-07-25T01:44:16.147Z,20.60
2022-07-25T01:45:16.281Z,20.58
2022-07-25T01:46:16.470Z,20.56
2022-07-25T01:47:16.476Z,20.56
2022-07-25T01:48:16.934Z,20.53
2022-07-25T01:49:16.765Z,20.52
2022-07-25T01:50:16.874Z,20.50
2022-07-25T01:51:20.447Z,20.49
2022-07-25T01:52:17.101Z,20.49
2022-07-25T01:53:17.227Z,20.49
2022-07-25T01:54:17.344Z,20.49
2022-07-25T01:55:17.463Z,20.46
2022-07-25T01:56:17.604Z,20.48
2022-07-25T01:57:17.706Z,20.49
2022-07-25T01:58:17.858Z,20.49
2022-07-25T01:59:17.929Z,20.46
2022-07-25T02:00:18.066Z,20.48
2022-07-25T02:01:19.511Z,20.49
2022-07-25T02:02:18.322Z,20.46
2022-07-25T02:03:18.356Z,20.42
2022-07-25T02:04:18.498Z,20.37
2022-07-25T02:05:18.611Z,20.37
2022-07-25T02:06:18.779Z,20.37
2022-07-25T02:07:18.896Z,20.36
2022-07-25T02:08:19.035Z,20.39
2022-07-25T02:09:19.167Z,20.44
2022-07-25T02:10:19.314Z,20.46
2022-07-25T02:11:19.487Z,20.48
2022-07-25T02:12:19.619Z,20.48
2022-07-25T02:13:19.721Z,20.44
2022-07-25T02:14:19.843Z,20.42
2022-07-25T02:15:19.985Z,20.37
2022-07-25T02:16:20.192Z,20.37
2022-07-25T02:17:21.272Z,20.36
2022-07-25T02:18:20.392Z,20.36
2022-07-25T02:19:20.543Z,20.39
2022-07-25T02:20:20.582Z,20.36
2022-07-25T02:21:20.770Z,20.36
2022-07-25T02:22:20.802Z,20.34
2022-07-25T02:23:21.025Z,20.32
2022-07-25T02:24:21.062Z,20.36
2022-07-25T02:25:21.208Z,20.37
2022-07-25T02:26:21.347Z,20.36
2022-07-25T02:27:21.470Z,20.36
2022-07-25T02:28:21.600Z,20.36
2022-07-25T02:29:22.054Z,20.33
2022-07-25T02:30:21.804Z,20.30
2022-07-25T02:31:21.978Z,20.29
2022-07-25T02:32:22.099Z,20.27
2022-07-25T02:33:22.241Z,20.22
2022-07-25T02:34:22.359Z,20.22
2022-07-25T02:35:22.501Z,20.22
2022-07-25T02:36:22.649Z,20.24
2022-07-25T02:37:22.788Z,20.22
2022-07-25T02:38:22.920Z,20.24
2022-07-25T02:39:23.037Z,20.21
2022-07-25T02:40:23.170Z,20.19
2022-07-25T02:41:23.313Z,20.18
2022-07-25T02:42:23.441Z,20.15
2022-07-25T02:43:23.573Z,20.12
2022-07-25T02:44:23.705Z,20.11
2022-07-25T02:45:24.662Z,20.08
2022-07-25T02:46:24.092Z,20.04
2022-07-25T02:47:24.194Z,20.04
2022-07-25T02:48:24.317Z,20.07
2022-07-25T02:49:24.442Z,20.07
2022-07-25T02:50:24.570Z,20.08
2022-07-25T02:51:25.148Z,20.04
2022-07-25T02:52:25.093Z,20.02
2022-07-25T02:53:47.179Z,20.00
2022-07-25T02:54:26.173Z,20.00
2022-07-25T02:55:25.642Z,19.97
2022-07-25T02:56:25.361Z,19.94
2022-07-25T02:57:25.498Z,19.93
2022-07-25T02:58:25.654Z,19.96
2022-07-25T02:59:25.770Z,19.96
2022-07-25T03:00:26.882Z,19.93
2022-07-25T03:01:26.086Z,19.92
2022-07-25T03:02:26.126Z,19.90
2022-07-25T03:03:26.287Z,19.89
2022-07-25T03:04:26.461Z,19.85
2022-07-25T03:05:26.577Z,19.85
2022-07-25T03:06:26.731Z,19.84
2022-07-25T03:07:26.867Z,19.87
2022-07-25T03:08:26.994Z,19.85
2022-07-25T03:09:27.129Z,19.85
2022-07-25T03:10:27.270Z,19.87
2022-07-25T03:11:27.415Z,19.84
2022-07-25T03:12:27.545Z,19.81
2022-07-25T03:13:34.675Z,19.81
2022-07-25T03:14:27.795Z,19.78
2022-07-25T03:15:27.945Z,19.77
2022-07-25T03:16:28.121Z,19.75
2022-07-25T03:17:28.227Z,19.72
2022-07-25T03:18:28.363Z,19.70
2022-07-25T03:19:28.522Z,19.66
2022-07-25T03:20:28.644Z,19.71
2022-07-25T03:21:28.790Z,19.71
2022-07-25T03:22:28.916Z,19.70
2022-07-25T03:23:29.042Z,19.64
2022-07-25T03:24:29.173Z,19.64
2022-07-25T03:25:29.308Z,19.63
2022-07-25T03:26:29.461Z,19.63
2022-07-25T03:27:29.594Z,19.63
2022-07-25T03:28:29.709Z,19.64
2022-07-25T03:29:29.838Z,19.66
2022-07-25T03:30:29.954Z,19.66
2022-07-25T03:31:30.224Z,19.66
2022-07-25T03:32:30.245Z,19.64
2022-07-25T03:33:30.365Z,19.64
2022-07-25T03:34:30.486Z,19.63
2022-07-25T03:35:30.624Z,19.63
2022-07-25T03:36:30.766Z,19.63
2022-07-25T03:37:30.888Z,19.64
2022-07-25T03:38:31.010Z,19.60
2022-07-25T03:39:31.134Z,19.62
2022-07-25T03:40:31.257Z,19.62
2022-07-25T03:41:31.400Z,19.62
2022-07-25T03:42:35.471Z,19.63
2022-07-25T03:43:31.696Z,19.64
2022-07-25T03:44:31.815Z,19.64
2022-07-25T03:45:31.969Z,19.64
2022-07-25T03:46:32.082Z,19.64
2022-07-25T03:47:32.175Z,19.62
2022-07-25T03:48:32.314Z,19.60
2022-07-25T03:49:32.411Z,19.59
2022-07-25T03:50:32.532Z,19.56
2022-07-25T03:51:32.683Z,19.57
2022-07-25T03:52:32.811Z,19.56
2022-07-25T03:53:32.931Z,19.55
2022-07-25T03:54:33.044Z,19.56
2022-07-25T03:55:33.180Z,19.57
2022-07-25T03:56:33.327Z,19.56
2022-07-25T03:57:33.432Z,19.56
2022-07-25T03:58:33.556Z,19.60
2022-07-25T03:59:33.683Z,19.62
2022-07-25T04:00:33.804Z,19.62
2022-07-25T04:01:34.013Z,19.60
2022-07-25T04:02:34.064Z,19.59
2022-07-25T04:03:40.637Z,19.57
2022-07-25T04:04:34.244Z,19.57
2022-07-25T04:05:34.362Z,19.57
2022-07-25T04:06:34.514Z,19.62
2022-07-25T04:07:34.632Z,19.62
2022-07-25T04:08:34.716Z,19.66
2022-07-25T04:09:35.005Z,19.64
2022-07-25T04:10:34.995Z,19.67
2022-07-25T04:11:35.134Z,19.71
2022-07-25T04:12:35.268Z,19.72
2022-07-25T04:13:35.382Z,19.71
2022-07-25T04:14:35.504Z,19.71
2022-07-25T04:15:35.623Z,19.75
2022-07-25T04:16:35.784Z,19.75
2022-07-25T04:17:35.809Z,19.77
2022-07-25T04:18:35.881Z,19.78
2022-07-25T04:19:35.995Z,19.81
2022-07-25T04:20:36.156Z,19.81
2022-07-25T04:21:36.287Z,19.79
2022-07-25T04:22:36.414Z,19.81
2022-07-25T04:23:36.543Z,19.81
2022-07-25T04:24:36.672Z,19.82
2022-07-25T04:25:36.792Z,19.87
2022-07-25T04:26:36.923Z,19.90
2022-07-25T04:27:37.046Z,19.90
2022-07-25T04:28:37.167Z,19.94
2022-07-25T04:29:37.286Z,19.96
2022-07-25T04:30:37.420Z,19.97
2022-07-25T04:31:37.565Z,20.00
2022-07-25T04:32:37.591Z,20.02
2022-07-25T04:33:37.708Z,20.03
2022-07-25T04:34:37.815Z,20.03
2022-07-25T04:35:37.937Z,20.07
2022-07-25T04:36:38.061Z,20.12
2022-07-25T04:37:38.179Z,20.11
2022-07-25T04:38:38.313Z,20.12
2022-07-25T04:39:38.429Z,20.14
2022-07-25T04:40:38.541Z,20.17
2022-07-25T04:41:38.679Z,20.19
2022-07-25T04:42:38.805Z,20.19
2022-07-25T04:43:38.922Z,20.21
2022-07-25T04:44:39.039Z,20.22
2022-07-25T04:45:39.224Z,20.22
2022-07-25T04:46:39.243Z,20.26
2022-07-25T04:47:39.359Z,20.27
2022-07-25T04:48:39.492Z,20.29
2022-07-25T04:49:39.589Z,20.30
2022-07-25T04:50:39.701Z,20.32
2022-07-25T04:51:39.830Z,20.34
2022-07-25T04:52:39.981Z,20.36
2022-07-25T04:53:40.097Z,20.40
2022-07-25T04:54:40.227Z,20.42
2022-07-25T04:55:40.361Z,20.46
2022-07-25T04:56:40.502Z,20.48
2022-07-25T04:57:40.619Z,20.52
2022-07-25T04:58:40.727Z,20.53
2022-07-25T04:59:40.841Z,20.56
2022-07-25T05:00:40.994Z,20.58
2022-07-25T05:01:41.119Z,20.58
2022-07-25T05:02:41.312Z,20.63
2022-07-25T05:03:41.300Z,20.67
2022-07-25T05:04:45.339Z,20.70
2022-07-25T05:05:41.538Z,20.74
2022-07-25T05:06:41.661Z,20.75
2022-07-25T05:07:41.779Z,20.78
2022-07-25T05:08:41.888Z,20.83
2022-07-25T05:09:42.018Z,20.88
2022-07-25T05:10:42.126Z,20.92
2022-07-25T05:11:46.968Z,21.00
2022-07-25T05:12:43.330Z,21.05
2022-07-25T05:13:42.453Z,21.07
2022-07-25T05:14:42.576Z,21.11
2022-07-25T05:15:42.686Z,21.14
2022-07-25T05:16:42.956Z,21.17
2022-07-25T05:17:42.968Z,21.23
2022-07-25T05:18:43.079Z,21.26
2022-07-25T05:19:43.197Z,21.29
2022-07-25T05:20:43.307Z,21.33
2022-07-25T05:21:43.446Z,21.40
2022-07-25T05:22:43.566Z,21.44
2022-07-25T05:23:43.691Z,21.48
2022-07-25T05:24:43.805Z,21.56
2022-07-25T05:25:43.922Z,21.59
2022-07-25T05:26:44.046Z,21.62
2022-07-25T05:27:44.160Z,21.63
2022-07-25T05:28:44.275Z,21.68
2022-07-25T05:29:44.386Z,21.70
2022-07-25T05:30:44.496Z,21.77
2022-07-25T05:31:44.669Z,21.83
2022-07-25T05:32:44.708Z,21.84
2022-07-25T05:33:44.812Z,21.89
2022-07-25T05:34:44.910Z,21.94
2022-07-25T05:35:45.026Z,21.99
2022-07-25T05:36:47.297Z,22.01
2022-07-25T05:37:45.276Z,22.06
2022-07-25T05:38:45.382Z,22.07
2022-07-25T05:39:45.495Z,22.15
2022-07-25T05:40:45.605Z,22.19
2022-07-25T05:41:45.737Z,22.26
2022-07-25T05:42:45.849Z,22.30
2022-07-25T05:43:45.955Z,22.26
2022-07-25T05:44:46.066Z,22.30
2022-07-25T05:45:46.177Z,22.34
2022-07-25T05:46:46.384Z,22.40
2022-07-25T05:47:46.388Z,22.46
2022-07-25T05:48:46.554Z,22.49
2022-07-25T05:49:46.586Z,22.52
2022-07-25T05:50:46.695Z,22.56
2022-07-25T05:51:46.826Z,22.63
2022-07-25T05:52:46.935Z,22.68
2022-07-25T05:53:47.036Z,22.71
2022-07-25T05:54:47.154Z,22.73
2022-07-25T05:55:47.262Z,22.77
2022-07-25T05:56:47.391Z,22.83
2022-07-25T05:57:47.521Z,22.84
2022-07-25T05:58:47.620Z,22.84
2022-07-25T05:59:47.722Z,22.83
2022-07-25T06:00:47.825Z,22.84
2022-07-25T06:01:48.047Z,22.91
2022-07-25T06:02:48.183Z,22.98
2022-07-25T06:03:48.207Z,23.06
2022-07-25T06:04:48.323Z,23.10
2022-07-25T06:05:48.425Z,23.14
2022-07-25T06:06:48.540Z,23.26
2022-07-25T06:07:48.655Z,23.33
2022-07-25T06:08:48.755Z,23.47
2022-07-25T06:09:48.867Z,23.52
2022-07-25T06:10:48.970Z,23.54
2022-07-25T06:11:54.422Z,23.55
2022-07-25T06:12:50.135Z,23.63
2022-07-25T06:13:49.233Z,23.73
2022-07-25T06:14:49.311Z,23.82
2022-07-25T06:15:49.458Z,23.88
2022-07-25T06:16:49.505Z,23.84
2022-07-25T06:17:49.610Z,23.91
2022-07-25T06:18:49.718Z,23.96
2022-07-25T06:19:49.836Z,24.07
2022-07-25T06:20:49.927Z,24.19
2022-07-25T06:21:50.062Z,24.29
2022-07-25T06:22:50.144Z,24.31
2022-07-25T06:23:50.257Z,24.36
2022-07-25T06:24:50.358Z,24.44
2022-07-25T06:25:50.694Z,24.63
2022-07-25T06:26:50.605Z,24.78
2022-07-25T06:27:50.703Z,24.81
2022-07-25T06:28:50.795Z,24.86
2022-07-25T06:29:50.895Z,24.94
2022-07-25T06:30:50.985Z,25.09
2022-07-25T06:31:51.188Z,25.14
2022-07-25T06:32:51.151Z,25.15
2022-07-25T06:33:51.243Z,25.24
2022-07-25T06:34:51.343Z,25.33
2022-07-25T06:35:51.425Z,25.40
2022-07-25T06:36:51.512Z,25.43
2022-07-25T06:37:51.629Z,25.59
2022-07-25T06:38:51.722Z,25.73
2022-07-25T06:39:51.814Z,25.76
2022-07-25T06:40:51.915Z,25.89
2022-07-25T06:41:52.015Z,25.99
2022-07-25T06:42:52.105Z,26.24
2022-07-25T06:43:52.191Z,26.31
2022-07-25T06:44:52.281Z,26.42
2022-07-25T06:45:52.365Z,26.45
2022-07-25T06:46:52.513Z,26.52
2022-07-25T06:47:52.524Z,26.66
2022-07-25T06:48:52.659Z,26.76
2022-07-25T06:49:52.669Z,26.88
2022-07-25T06:50:52.766Z,26.96
2022-07-25T06:51:52.886Z,27.08
2022-07-25T06:52:52.976Z,27.13
2022-07-25T06:53:53.058Z,27.22
2022-07-25T06:54:53.156Z,27.45
2022-07-25T06:55:53.238Z,27.64
2022-07-25T06:56:53.322Z,27.64
2022-07-25T06:57:53.414Z,27.60
2022-07-25T06:58:53.501Z,27.67
2022-07-25T06:59:53.587Z,27.88
2022-07-25T07:00:53.679Z,28.10
2022-07-25T07:01:53.715Z,28.20
2022-07-25T07:02:53.821Z,28.28
2022-07-25T07:03:53.993Z,28.16
2022-07-25T07:04:53.991Z,28.34
2022-07-25T07:05:54.064Z,28.62
2022-07-25T07:06:54.154Z,28.89
2022-07-25T07:07:54.236Z,28.70
2022-07-25T07:08:54.324Z,29.00
2022-07-25T07:09:54.398Z,29.06
2022-07-25T07:10:54.417Z,29.25
2022-07-25T07:11:54.514Z,29.05
2022-07-25T07:12:54.590Z,29.25
2022-07-25T07:13:54.673Z,29.53
2022-07-25T07:15:01.346Z,29.61
2022-07-25T07:15:54.910Z,29.53
2022-07-25T07:16:54.897Z,29.92
2022-07-25T07:17:54.972Z,30.23
2022-07-25T07:18:55.046Z,30.71
2022-07-25T07:19:55.115Z,31.04
2022-07-25T07:20:55.190Z,30.91
2022-07-25T07:21:55.287Z,30.81
2022-07-25T07:22:55.374Z,30.26
2022-07-25T07:23:55.415Z,30.14
2022-07-25T07:24:55.466Z,30.10
2022-07-25T07:25:55.485Z,30.39
2022-07-25T07:26:55.576Z,30.77
2022-07-25T07:27:55.646Z,30.52
2022-07-25T07:28:55.720Z,30.56
2022-07-25T07:29:55.796Z,30.65
2022-07-25T07:31:56.940Z,30.16
2022-07-25T07:32:55.919Z,30.31
2022-07-25T07:33:55.987Z,30.36
2022-07-25T07:34:56.057Z,30.92
2022-07-25T07:35:56.120Z,31.05
2022-07-25T07:36:56.186Z,30.83
2022-07-25T07:37:56.238Z,30.62
2022-07-25T07:38:56.297Z,30.54
2022-07-25T07:39:56.374Z,30.71
2022-07-25T07:40:56.446Z,30.74
2022-07-25T07:41:56.502Z,30.88
2022-07-25T07:42:56.565Z,30.77
2022-07-25T07:43:56.607Z,30.81
2022-07-25T07:44:56.657Z,31.07
2022-07-25T07:45:56.731Z,31.45
2022-07-25T07:46:56.824Z,31.39
2022-07-25T07:47:56.755Z,31.25
2022-07-25T07:48:56.867Z,31.35
2022-07-25T07:49:56.808Z,31.47
2022-07-25T07:50:56.866Z,31.57
2022-07-25T07:51:56.920Z,31.86
2022-07-25T07:52:57.005Z,31.86
2022-07-25T07:53:57.056Z,31.89
2022-07-25T07:54:59.418Z,31.82
2022-07-25T07:55:57.177Z,32.08
2022-07-25T07:56:57.222Z,31.67
2022-07-25T07:57:57.269Z,31.51
2022-07-25T07:58:57.306Z,31.57
2022-07-25T07:59:57.337Z,31.64
2022-07-25T08:00:57.367Z,31.59
2022-07-25T08:01:57.460Z,31.57
2022-07-25T08:02:57.535Z,31.62
2022-07-25T08:03:57.460Z,31.85
2022-07-25T08:04:57.490Z,31.95
2022-07-25T08:05:57.521Z,31.62
2022-07-25T08:06:57.592Z,31.57
2022-07-25T08:07:57.621Z,31.89
2022-07-25T08:08:57.642Z,31.86
2022-07-25T08:09:57.662Z,32.15
2022-07-25T08:10:59.115Z,32.20
2022-07-25T08:11:57.696Z,32.19
2022-07-25T08:12:57.735Z,32.02
2022-07-25T08:13:57.739Z,32.20
2022-07-25T08:14:57.762Z,32.11
2022-07-25T08:15:57.815Z,32.00
2022-07-25T08:16:57.833Z,31.86
2022-07-25T08:17:57.859Z,31.81
2022-07-25T08:18:57.895Z,32.22
2022-07-25T08:20:14.443Z,32.38
2022-07-25T08:20:58.875Z,32.34
2022-07-25T08:21:57.886Z,32.35
2022-07-25T08:22:57.914Z,32.05
2022-07-25T08:23:57.943Z,32.19
2022-07-25T08:24:57.878Z,32.35
2022-07-25T08:25:57.893Z,32.41
2022-07-25T08:26:57.929Z,32.34
2022-07-25T08:27:57.843Z,32.39
2022-07-25T08:29:17.593Z,32.38
2022-07-25T08:29:58.823Z,32.41
2022-07-25T08:30:57.858Z,32.83
2022-07-25T08:31:57.859Z,32.83
2022-07-25T08:32:57.867Z,32.60
2022-07-25T08:33:57.870Z,32.71
2022-07-25T08:34:57.872Z,32.86
2022-07-25T08:35:57.862Z,32.98
2022-07-25T08:36:57.883Z,32.98
2022-07-25T08:37:57.902Z,32.93
2022-07-25T08:38:57.922Z,33.09
2022-07-25T08:39:57.927Z,33.53
2022-07-25T08:40:57.930Z,33.38
2022-07-25T08:41:57.921Z,33.08
2022-07-25T08:42:57.973Z,33.26
2022-07-25T08:43:57.843Z,33.31
2022-07-25T08:44:57.832Z,33.12
2022-07-25T08:45:57.881Z,33.35
2022-07-25T08:46:57.936Z,33.45
2022-07-25T08:47:57.818Z,33.69
2022-07-25T08:48:57.929Z,33.69
2022-07-25T08:50:02.368Z,33.69
2022-07-25T08:50:58.691Z,33.89
2022-07-25T08:51:57.695Z,33.95
2022-07-25T08:53:23.017Z,33.57
2022-07-25T08:53:58.598Z,33.55
2022-07-25T08:54:57.569Z,33.42
2022-07-25T08:55:57.564Z,33.63
2022-07-25T08:56:57.540Z,33.76
2022-07-25T08:57:57.525Z,33.63
2022-07-25T08:58:57.533Z,34.03
2022-07-25T08:59:57.514Z,34.07
2022-07-25T09:00:57.497Z,33.75
2022-07-25T09:01:57.509Z,33.69
2022-07-25T09:02:57.470Z,33.32
2022-07-25T09:03:57.345Z,33.29
2022-07-25T09:04:57.320Z,33.15
2022-07-25T09:05:57.296Z,33.08
2022-07-25T09:06:57.278Z,33.00
2022-07-25T09:07:57.254Z,33.13
2022-07-25T09:08:57.233Z,33.38
2022-07-25T09:09:57.201Z,33.50
2022-07-25T09:10:57.178Z,33.73
2022-07-25T09:11:57.153Z,33.67
2022-07-25T09:12:57.143Z,33.91
2022-07-25T09:14:05.136Z,33.79
2022-07-25T09:14:57.022Z,33.82
2022-07-25T09:15:59.685Z,33.63
2022-07-25T09:16:58.623Z,33.57
2022-07-25T09:17:56.826Z,33.39
2022-07-25T09:18:56.789Z,33.23
2022-07-25T09:19:56.781Z,33.42
2022-07-25T09:20:56.743Z,33.38
2022-07-25T09:21:56.712Z,33.31
2022-07-25T09:22:56.669Z,33.42
2022-07-25T09:23:56.550Z,33.55
2022-07-25T09:24:56.521Z,34.06
2022-07-25T09:25:56.488Z,34.14
2022-07-25T09:26:56.452Z,34.13
2022-07-25T09:27:56.423Z,34.10
2022-07-25T09:28:56.392Z,34.46
2022-07-25T09:29:56.372Z,34.75
2022-07-25T09:30:56.451Z,34.81
2022-07-25T09:31:56.308Z,35.05
2022-07-25T09:32:56.268Z,34.97
2022-07-25T09:33:56.254Z,34.59
2022-07-25T09:34:56.203Z,34.88
2022-07-25T09:35:56.171Z,35.13
2022-07-25T09:36:56.129Z,35.30
2022-07-25T09:37:56.074Z,35.01
2022-07-25T09:38:56.035Z,34.46
2022-07-25T09:39:55.987Z,34.26
2022-07-25T09:40:55.946Z,34.24
2022-07-25T09:41:55.902Z,34.62
2022-07-25T09:42:55.858Z,34.86
2022-07-25T09:43:55.815Z,34.50
2022-07-25T09:44:55.765Z,34.25
2022-07-25T09:45:55.803Z,34.13
2022-07-25T09:46:55.677Z,34.19
2022-07-25T09:47:55.648Z,34.65
2022-07-25T09:48:55.661Z,34.83
2022-07-25T09:49:55.503Z,35.04
2022-07-25T09:50:55.467Z,35.07
2022-07-25T09:51:55.420Z,35.22
2022-07-25T09:52:55.380Z,35.39
2022-07-25T09:53:55.335Z,35.37
2022-07-25T09:54:55.285Z,35.50
2022-07-25T09:55:55.245Z,35.05
2022-07-25T09:56:55.210Z,34.73
2022-07-25T09:57:55.175Z,34.51
2022-07-25T09:58:55.120Z,34.53
2022-07-25T09:59:55.074Z,34.89
2022-07-25T10:00:55.036Z,35.60
2022-07-25T10:01:55.031Z,35.98
2022-07-25T10:02:55.039Z,36.13
2022-07-25T10:03:54.813Z,36.24
2022-07-25T10:04:54.764Z,36.44
2022-07-25T10:05:54.709Z,36.70
2022-07-25T10:06:54.658Z,36.65
2022-07-25T10:07:54.604Z,36.60
2022-07-25T10:08:54.556Z,36.88
2022-07-25T10:09:54.494Z,36.67
2022-07-25T10:10:54.446Z,36.09
2022-07-25T10:11:54.387Z,35.72
2022-07-25T10:12:54.325Z,35.39
2022-07-25T10:13:54.273Z,34.94
2022-07-25T10:14:54.235Z,34.78
2022-07-25T10:15:54.182Z,34.86
2022-07-25T10:16:54.151Z,35.35
2022-07-25T10:17:54.074Z,35.71
2022-07-25T10:18:54.016Z,35.87
2022-07-25T10:19:58.539Z,35.98
2022-07-25T10:20:54.850Z,35.79
2022-07-25T10:21:53.795Z,35.50
2022-07-25T10:22:56.587Z,35.60
2022-07-25T10:23:53.677Z,35.71
2022-07-25T10:24:53.623Z,35.74
2022-07-25T10:25:53.566Z,36.25
2022-07-25T10:26:53.522Z,36.35
2022-07-25T10:27:53.468Z,36.03
2022-07-25T10:28:53.390Z,35.60
2022-07-25T10:29:53.342Z,35.50
2022-07-25T10:30:53.334Z,35.74
2022-07-25T10:31:53.184Z,35.68
2022-07-25T10:32:53.126Z,35.59
2022-07-25T10:33:53.093Z,35.81
2022-07-25T10:34:53.031Z,36.22
2022-07-25T10:35:52.977Z,36.01
2022-07-25T10:36:52.926Z,36.11
2022-07-25T10:37:52.875Z,36.29
2022-07-25T10:38:52.821Z,36.33
2022-07-25T10:39:52.756Z,36.55
2022-07-25T10:40:52.696Z,36.55
2022-07-25T10:41:52.659Z,36.76
2022-07-25T10:42:52.609Z,37.15
2022-07-25T10:43:52.563Z,37.43
2022-07-25T10:44:52.504Z,37.43
2022-07-25T10:45:52.493Z,37.63
2022-07-25T10:46:52.307Z,37.63
2022-07-25T10:47:52.255Z,37.71
2022-07-25T10:48:52.922Z,37.22
2022-07-25T10:50:14.477Z,37.15
2022-07-25T10:50:55.840Z,37.23
2022-07-25T10:51:51.943Z,37.58
2022-07-25T10:52:51.878Z,36.91
2022-07-25T10:53:51.837Z,36.48
2022-07-25T10:54:51.778Z,36.48
2022-07-25T10:56:05.015Z,36.84
2022-07-25T10:56:52.632Z,37.22
2022-07-25T10:58:16.057Z,37.60
2022-07-25T10:58:52.500Z,37.21
2022-07-25T10:59:51.441Z,37.21
2022-07-25T11:00:51.650Z,37.50
2022-07-25T11:01:51.371Z,37.71
2022-07-25T11:02:51.357Z,37.67
2022-07-25T11:03:51.218Z,37.28
2022-07-25T11:04:51.163Z,37.92
2022-07-25T11:05:51.091Z,38.17
2022-07-25T11:06:51.049Z,37.76
2022-07-25T11:08:11.530Z,36.94
2022-07-25T11:08:51.915Z,37.41
2022-07-25T11:09:50.858Z,37.75
2022-07-25T11:10:50.809Z,37.36
2022-07-25T11:11:50.750Z,37.78
2022-07-25T11:12:50.705Z,37.83
2022-07-25T11:13:50.640Z,37.71
2022-07-25T11:14:50.579Z,37.36
2022-07-25T11:15:50.547Z,37.19
2022-07-25T11:16:50.636Z,37.10
2022-07-25T11:17:50.429Z,37.36
2022-07-25T11:18:50.372Z,37.61
2022-07-25T11:19:50.319Z,38.09
2022-07-25T11:20:50.287Z,38.46
2022-07-25T11:21:50.237Z,38.39
2022-07-25T11:22:50.191Z,38.84
2022-07-25T11:23:50.146Z,38.84
2022-07-25T11:24:50.099Z,38.01
2022-07-25T11:25:50.175Z,37.79
2022-07-25T11:26:49.940Z,37.86
2022-07-25T11:27:49.892Z,38.27
2022-07-25T11:28:49.855Z,38.27
2022-07-25T11:29:49.807Z,38.62
2022-07-25T11:30:49.820Z,38.96
2022-07-25T11:31:49.775Z,39.39
2022-07-25T11:32:49.634Z,39.54
2022-07-25T11:33:49.505Z,39.52
2022-07-25T11:34:49.465Z,39.38
2022-07-25T11:35:49.451Z,38.82
2022-07-25T11:36:49.405Z,38.38
2022-07-25T11:37:49.407Z,38.05
2022-07-25T11:38:49.260Z,38.28
2022-07-25T11:39:49.220Z,38.48
2022-07-25T11:40:49.180Z,39.01
2022-07-25T11:41:49.144Z,39.39
2022-07-25T11:42:49.105Z,38.98
2022-07-25T11:43:49.074Z,38.88
2022-07-25T11:44:49.027Z,39.14
2022-07-25T11:45:49.017Z,39.19
2022-07-25T11:46:48.950Z,39.46
2022-07-25T11:47:48.933Z,39.38
2022-07-25T11:48:48.938Z,39.49
2022-07-25T11:49:48.887Z,39.42
2022-07-25T11:50:48.856Z,39.15
2022-07-25T11:51:48.816Z,39.46
2022-07-25T11:52:48.783Z,39.75
2022-07-25T11:53:48.751Z,40.02
2022-07-25T11:54:48.714Z,39.17
2022-07-25T11:55:48.670Z,38.95
2022-07-25T11:56:48.634Z,38.42
2022-07-25T11:57:48.599Z,38.47
2022-07-25T11:58:48.549Z,38.91
2022-07-25T11:59:48.508Z,39.04
2022-07-25T12:00:48.475Z,38.56
2022-07-25T12:01:48.514Z,37.68
2022-07-25T12:02:48.508Z,36.81
2022-07-25T12:03:48.367Z,36.41
2022-07-25T12:04:48.230Z,36.94
2022-07-25T12:05:48.222Z,37.25
2022-07-25T12:06:48.187Z,37.98
2022-07-25T12:07:48.172Z,38.75
2022-07-25T12:08:48.144Z,39.49
2022-07-25T12:09:48.123Z,39.12
2022-07-25T12:10:48.100Z,38.56
2022-07-25T12:11:48.072Z,37.80
2022-07-25T12:12:48.075Z,37.88
2022-07-25T12:13:48.041Z,38.22
2022-07-25T12:14:48.015Z,38.56
2022-07-25T12:15:48.000Z,38.82
2022-07-25T12:16:48.007Z,39.19
2022-07-25T12:17:47.968Z,39.30
2022-07-25T12:18:47.945Z,39.68
2022-07-25T12:19:47.924Z,39.82
2022-07-25T12:20:47.904Z,40.10
2022-07-25T12:21:47.883Z,40.24
2022-07-25T12:22:47.892Z,39.95
2022-07-25T12:23:47.874Z,39.51
2022-07-25T12:24:47.875Z,38.72
2022-07-25T12:25:47.855Z,38.54
2022-07-25T12:26:47.831Z,38.73
2022-07-25T12:27:47.825Z,38.46
2022-07-25T12:28:47.808Z,38.46
2022-07-25T12:29:47.778Z,38.73
2022-07-25T12:30:51.614Z,38.42
2022-07-25T12:31:48.695Z,38.87
2022-07-25T12:32:47.677Z,38.95
2022-07-25T12:33:47.667Z,39.03
2022-07-25T12:34:47.643Z,38.36
2022-07-25T12:35:47.686Z,38.63
2022-07-25T12:36:47.661Z,39.11
2022-07-25T12:37:47.556Z,39.17
2022-07-25T12:38:47.528Z,38.76
2022-07-25T12:39:47.517Z,39.01
2022-07-25T12:40:47.514Z,39.01
2022-07-25T12:41:47.500Z,38.91
2022-07-25T12:42:47.478Z,38.72
2022-07-25T12:43:47.467Z,38.34
2022-07-25T12:44:47.453Z,37.85
2022-07-25T12:45:47.569Z,38.29
2022-07-25T12:46:49.581Z,38.84
2022-07-25T12:47:47.388Z,38.84
2022-07-25T12:48:47.409Z,38.58
2022-07-25T12:49:47.381Z,38.87
2022-07-25T12:50:47.379Z,37.95
2022-07-25T12:51:47.383Z,38.00
2022-07-25T12:52:47.397Z,38.32
2022-07-25T12:53:47.369Z,38.20